Terminal Aerodrome Forecast
Issued by NWS

Home | Current Version | Previous Version | Text Only | Print | Product List | Glossary On
Versions: 1 2 3 4 5 6 7 8 9 10 11 12 13 14 15 16 17
000
FTUS43 KPAH 130525
TAFOWB
TAF
KOWB 130525Z 1306/1406 VRB03KT P6SM SCT250
     FM131300 20008KT P6SM FEW250
     FM131500 20013G22KT P6SM FEW250
     FM131900 22019G31KT P6SM FEW250
     FM140000 25012G22KT P6SM BKN200
     FM140200 28010G19KT P6SM BKN090=

USA.gov is the U.S. government's official web portal to all federal, state and local government web resources and services.